Mary Kathleen, Australia
Current Conditions -  °F | °C
As of 4:00 AM on Monday 26 Jan 2015 (Local Time) from YBMA Reporting Station
Clear Clear  
Wind Chill: 75°   Ceiling: Unl
Heat Index: 75°   Visibility: 6mi
Dew Point: 68°   Wind: 6mph
Humidity: 78%   Direction: 160°SSE
Pressure: 29.77"   Gusts: NA
Location:  20.78°S, 139.98°E
Report Text: YBMA 251800Z AUTO 16005KT 9999 // NCD 24/20 Q1008
Loading
Personal Weather Stations






























Interactive Weather Map New forecast layout! Learn more

10-Day Weather Forecast

Advertisements
Track Severe Weather on mobile